createdAt,value
2023-05-24T00:00:48.352Z,147.69
2023-05-24T00:01:48.287Z,147.13
2023-05-24T00:02:48.335Z,148.35
2023-05-24T00:03:48.356Z,146.54
2023-05-24T00:04:48.298Z,143.64
2023-05-24T00:05:48.230Z,143.36
2023-05-24T00:06:48.277Z,142.93
2023-05-24T00:07:48.218Z,142.60
2023-05-24T00:08:48.193Z,141.80
2023-05-24T00:09:48.176Z,142.19
2023-05-24T00:10:48.163Z,136.86
2023-05-24T00:11:48.154Z,134.39
2023-05-24T00:12:48.135Z,137.43
2023-05-24T00:13:48.126Z,134.73
2023-05-24T00:14:48.104Z,134.18
2023-05-24T00:15:48.126Z,136.77
2023-05-24T00:16:48.086Z,137.14
2023-05-24T00:17:48.109Z,141.18
2023-05-24T00:18:48.066Z,140.74
2023-05-24T00:19:48.075Z,141.44
2023-05-24T00:20:48.330Z,139.77
2023-05-24T00:21:48.035Z,141.13
2023-05-24T00:22:48.018Z,142.77
2023-05-24T00:23:48.012Z,141.36
2023-05-24T00:24:48.027Z,141.25
2023-05-24T00:25:47.988Z,140.99
2023-05-24T00:26:47.991Z,136.57
2023-05-24T00:27:47.982Z,140.05
2023-05-24T00:28:47.963Z,141.89
2023-05-24T00:29:48.022Z,141.03
2023-05-24T00:30:47.997Z,142.00
2023-05-24T00:31:47.934Z,141.98
2023-05-24T00:32:47.951Z,143.15
2023-05-24T00:33:47.971Z,143.67
2023-05-24T00:34:47.899Z,144.93
2023-05-24T00:35:47.918Z,145.06
2023-05-24T00:36:47.956Z,144.33
2023-05-24T00:37:47.874Z,145.96
2023-05-24T00:38:47.874Z,146.45
2023-05-24T00:39:47.837Z,144.73
2023-05-24T00:40:47.838Z,146.73
2023-05-24T00:41:47.814Z,147.85
2023-05-24T00:42:47.803Z,147.44
2023-05-24T00:43:47.786Z,148.41
2023-05-24T00:44:47.778Z,147.29
2023-05-24T00:45:47.810Z,148.69
2023-05-24T00:46:47.744Z,146.85
2023-05-24T00:47:47.768Z,145.80
2023-05-24T00:48:47.723Z,146.93
2023-05-24T00:49:47.713Z,146.90
2023-05-24T00:50:47.706Z,146.93
2023-05-24T00:51:47.690Z,146.13
2023-05-24T00:52:47.697Z,148.11
2023-05-24T00:53:47.685Z,150.70
2023-05-24T00:54:47.657Z,150.19
2023-05-24T00:55:47.666Z,150.96
2023-05-24T00:56:47.693Z,150.79
2023-05-24T00:57:47.719Z,152.11
2023-05-24T00:58:47.650Z,151.37
2023-05-24T00:59:47.689Z,152.16
2023-05-24T01:00:47.608Z,155.06
2023-05-24T01:01:47.646Z,154.89
2023-05-24T01:02:47.693Z,153.36
2023-05-24T01:03:47.673Z,155.44
2023-05-24T01:04:47.556Z,156.53
2023-05-24T01:05:47.563Z,156.85
2023-05-24T01:06:47.527Z,157.14
2023-05-24T01:07:47.529Z,156.96
2023-05-24T01:08:47.519Z,156.89
2023-05-24T01:09:47.506Z,157.12
2023-05-24T01:10:47.505Z,156.67
2023-05-24T01:11:47.486Z,156.99
2023-05-24T01:12:47.499Z,157.32
2023-05-24T01:13:47.512Z,158.34
2023-05-24T01:14:47.467Z,156.79
2023-05-24T01:15:47.499Z,158.31
2023-05-24T01:16:47.462Z,159.35
2023-05-24T01:17:47.502Z,159.42
2023-05-24T01:18:47.461Z,159.51
2023-05-24T01:19:47.430Z,159.87
2023-05-24T01:20:47.695Z,160.55
2023-05-24T01:21:47.433Z,162.37
2023-05-24T01:22:47.409Z,159.49
2023-05-24T01:23:47.392Z,159.52
2023-05-24T01:24:47.380Z,160.08
2023-05-24T01:25:47.388Z,161.64
2023-05-24T01:26:47.368Z,162.86
2023-05-24T01:27:47.384Z,164.86
2023-05-24T01:28:47.348Z,166.37
2023-05-24T01:29:47.343Z,165.60
2023-05-24T01:30:47.354Z,164.90
2023-05-24T01:31:47.429Z,167.09
2023-05-24T01:32:47.355Z,168.43
2023-05-24T01:33:47.288Z,167.53
2023-05-24T01:34:47.305Z,164.93
2023-05-24T01:35:47.340Z,164.71
2023-05-24T01:36:47.261Z,163.81
2023-05-24T01:37:47.270Z,165.84
2023-05-24T01:38:47.256Z,166.59
2023-05-24T01:39:47.225Z,166.09
2023-05-24T01:40:47.227Z,167.52
2023-05-24T01:41:47.248Z,167.83
2023-05-24T01:42:47.266Z,166.76
2023-05-24T01:43:47.271Z,166.21
2023-05-24T01:44:47.307Z,167.29
2023-05-24T01:45:47.328Z,167.37
2023-05-24T01:46:47.385Z,166.45
2023-05-24T01:47:47.370Z,166.27
2023-05-24T01:48:47.382Z,167.45
2023-05-24T01:49:47.453Z,168.22
2023-05-24T01:50:47.474Z,168.73
2023-05-24T01:51:47.599Z,169.64
2023-05-24T01:52:47.539Z,169.26
2023-05-24T01:53:47.680Z,169.72
2023-05-24T01:54:47.575Z,170.81
2023-05-24T01:55:47.576Z,171.37
2023-05-24T01:56:47.593Z,170.88
2023-05-24T01:57:47.581Z,169.69
2023-05-24T01:58:47.581Z,170.95
2023-05-24T01:59:47.572Z,169.43
2023-05-24T02:00:47.587Z,170.09
2023-05-24T02:01:47.560Z,170.55
2023-05-24T02:02:47.628Z,171.23
2023-05-24T02:03:47.556Z,171.05
2023-05-24T02:04:47.607Z,172.52
2023-05-24T02:05:47.564Z,172.48
2023-05-24T02:06:47.569Z,172.91
2023-05-24T02:07:47.538Z,173.63
2023-05-24T02:08:47.596Z,172.50
2023-05-24T02:09:47.566Z,172.61
2023-05-24T02:10:47.580Z,172.36
2023-05-24T02:11:47.582Z,173.36
2023-05-24T02:12:47.537Z,175.11
2023-05-24T02:13:47.528Z,173.96
2023-05-24T02:14:47.512Z,174.07
2023-05-24T02:15:47.513Z,174.39
2023-05-24T02:16:47.536Z,174.37
2023-05-24T02:17:47.642Z,176.53
2023-05-24T02:18:47.498Z,177.25
2023-05-24T02:19:47.531Z,177.51
2023-05-24T02:20:47.478Z,178.37
2023-05-24T02:21:47.484Z,176.32
2023-05-24T02:22:47.472Z,176.58
2023-05-24T02:23:47.500Z,178.20
2023-05-24T02:24:47.478Z,178.33
2023-05-24T02:25:47.484Z,177.69
2023-05-24T02:26:47.487Z,177.71
2023-05-24T02:27:47.487Z,178.37
2023-05-24T02:28:47.462Z,177.26
2023-05-24T02:29:47.472Z,179.58
2023-05-24T02:30:47.585Z,180.27
2023-05-24T02:31:47.468Z,180.43
2023-05-24T02:32:47.469Z,179.52
2023-05-24T02:33:47.458Z,179.78
2023-05-24T02:34:47.426Z,179.84
2023-05-24T02:35:47.418Z,180.04
2023-05-24T02:36:47.425Z,180.90
2023-05-24T02:37:47.426Z,182.15
2023-05-24T02:38:47.403Z,183.87
2023-05-24T02:39:47.372Z,183.22
2023-05-24T02:40:47.368Z,183.77
2023-05-24T02:41:47.363Z,184.78
2023-05-24T02:42:47.340Z,185.45
2023-05-24T02:43:47.334Z,185.51
2023-05-24T02:44:47.326Z,185.53
2023-05-24T02:45:47.311Z,185.57
2023-05-24T02:46:47.437Z,185.14
2023-05-24T02:47:47.361Z,184.24
2023-05-24T02:48:47.299Z,184.01
2023-05-24T02:49:47.299Z,183.92
2023-05-24T02:50:47.279Z,184.01
2023-05-24T02:51:47.271Z,184.07
2023-05-24T02:52:47.247Z,184.07
2023-05-24T02:53:47.253Z,185.43
2023-05-24T02:54:47.250Z,186.13
2023-05-24T02:55:47.242Z,187.73
2023-05-24T02:56:47.219Z,187.38
2023-05-24T02:57:47.222Z,186.66
2023-05-24T02:58:47.218Z,187.63
2023-05-24T02:59:47.219Z,187.38
2023-05-24T03:00:47.209Z,187.02
2023-05-24T03:01:47.213Z,186.98
2023-05-24T03:02:47.240Z,187.89
2023-05-24T03:03:47.283Z,187.75
2023-05-24T03:04:47.187Z,186.78
2023-05-24T03:05:47.220Z,188.54
2023-05-24T03:06:47.181Z,189.27
2023-05-24T03:07:47.175Z,189.30
2023-05-24T03:08:47.155Z,189.44
2023-05-24T03:09:47.147Z,188.38
2023-05-24T03:10:47.136Z,189.34
2023-05-24T03:11:47.156Z,189.86
2023-05-24T03:12:47.137Z,189.38
2023-05-24T03:13:47.146Z,189.35
2023-05-24T03:14:47.138Z,190.24
2023-05-24T03:15:47.168Z,188.47
2023-05-24T03:16:47.096Z,187.44
2023-05-24T03:17:47.172Z,189.88
2023-05-24T03:18:47.093Z,191.49
2023-05-24T03:19:47.083Z,191.68
2023-05-24T03:20:47.119Z,191.58
2023-05-24T03:21:47.060Z,192.37
2023-05-24T03:22:47.076Z,191.29
2023-05-24T03:23:47.053Z,192.51
2023-05-24T03:24:47.045Z,192.36
2023-05-24T03:25:47.039Z,193.60
2023-05-24T03:26:47.016Z,193.93
2023-05-24T03:27:47.001Z,194.69
2023-05-24T03:28:46.999Z,195.79
2023-05-24T03:29:46.981Z,196.05
2023-05-24T03:30:47.001Z,195.28
2023-05-24T03:31:47.063Z,195.21
2023-05-24T03:32:47.025Z,194.69
2023-05-24T03:33:46.979Z,193.92
2023-05-24T03:34:46.977Z,195.68
2023-05-24T03:35:46.936Z,194.38
2023-05-24T03:36:46.937Z,195.59
2023-05-24T03:37:46.914Z,194.99
2023-05-24T03:38:46.886Z,196.55
2023-05-24T03:39:46.887Z,196.12
2023-05-24T03:40:46.881Z,196.43
2023-05-24T03:41:46.890Z,195.40
2023-05-24T03:42:46.856Z,195.74
2023-05-24T03:43:46.849Z,195.84
2023-05-24T03:44:46.828Z,196.02
2023-05-24T03:45:46.851Z,195.84
2023-05-24T03:46:46.826Z,195.83
2023-05-24T03:47:46.831Z,195.98
2023-05-24T03:48:46.793Z,195.98
2023-05-24T03:49:46.800Z,194.34
2023-05-24T03:50:46.781Z,194.64
2023-05-24T03:51:46.777Z,193.50
2023-05-24T03:52:46.772Z,192.22
2023-05-24T03:53:46.797Z,193.31
2023-05-24T03:54:46.772Z,192.63
2023-05-24T03:55:47.075Z,193.00
2023-05-24T03:56:46.747Z,193.81
2023-05-24T03:57:46.736Z,192.20
2023-05-24T03:58:46.759Z,193.00
2023-05-24T03:59:46.726Z,191.73
2023-05-24T04:00:46.713Z,192.76
2023-05-24T04:01:46.688Z,193.11
2023-05-24T04:02:46.729Z,193.31
2023-05-24T04:03:46.698Z,192.72
2023-05-24T04:04:46.657Z,192.07
2023-05-24T04:05:46.650Z,191.27
2023-05-24T04:06:46.649Z,189.89
2023-05-24T04:07:46.666Z,187.59
2023-05-24T04:08:46.616Z,186.34
2023-05-24T04:09:46.613Z,187.34
2023-05-24T04:10:46.607Z,187.41
2023-05-24T04:11:46.609Z,184.52
2023-05-24T04:12:46.593Z,184.33
2023-05-24T04:13:46.587Z,184.49
2023-05-24T04:14:46.579Z,184.50
2023-05-24T04:15:46.582Z,183.28
2023-05-24T04:16:46.569Z,183.32
2023-05-24T04:17:46.740Z,183.33
2023-05-24T04:18:46.727Z,182.66
2023-05-24T04:19:46.577Z,181.85
2023-05-24T04:20:46.597Z,180.74
2023-05-24T04:21:46.650Z,181.25
2023-05-24T04:22:46.593Z,179.90
2023-05-24T04:23:46.592Z,178.62
2023-05-24T04:24:46.593Z,178.12
2023-05-24T04:25:46.599Z,177.81
2023-05-24T04:26:46.603Z,177.72
2023-05-24T04:27:46.601Z,178.39
2023-05-24T04:28:46.616Z,177.69
2023-05-24T04:29:46.612Z,175.03
2023-05-24T04:30:46.624Z,172.38
2023-05-24T04:31:46.676Z,175.06
2023-05-24T04:32:46.746Z,172.23
2023-05-24T04:33:46.613Z,171.77
2023-05-24T04:34:46.646Z,172.79
2023-05-24T04:35:46.622Z,173.75
2023-05-24T04:36:46.629Z,170.89
2023-05-24T04:37:46.658Z,169.43
2023-05-24T04:38:46.623Z,169.35
2023-05-24T04:39:46.653Z,169.57
2023-05-24T04:40:46.619Z,169.80
2023-05-24T04:41:46.630Z,170.25
2023-05-24T04:42:46.628Z,170.21
2023-05-24T04:43:46.628Z,169.74
2023-05-24T04:44:46.633Z,170.52
2023-05-24T04:45:46.629Z,171.34
2023-05-24T04:46:46.689Z,170.65
2023-05-24T04:47:46.684Z,171.98
2023-05-24T04:48:46.609Z,172.00
2023-05-24T04:49:46.683Z,171.30
2023-05-24T04:50:46.639Z,167.87
2023-05-24T04:51:46.636Z,168.57
2023-05-24T04:52:46.672Z,169.21
2023-05-24T04:53:46.645Z,171.46
2023-05-24T04:54:46.623Z,170.45
2023-05-24T04:55:46.645Z,167.75
2023-05-24T04:56:46.650Z,168.70
2023-05-24T04:57:46.677Z,168.78
2023-05-24T04:58:46.626Z,167.62
2023-05-24T04:59:46.601Z,165.66
2023-05-24T05:00:46.582Z,164.71
2023-05-24T05:01:46.673Z,165.20
2023-05-24T05:02:46.652Z,164.79
2023-05-24T05:03:46.628Z,164.35
2023-05-24T05:04:46.567Z,166.29
2023-05-24T05:05:46.613Z,167.17
2023-05-24T05:06:46.555Z,167.41
2023-05-24T05:07:46.515Z,165.93
2023-05-24T05:08:46.531Z,159.82
2023-05-24T05:09:46.488Z,161.90
2023-05-24T05:10:46.484Z,162.78
2023-05-24T05:11:46.489Z,163.59
2023-05-24T05:12:46.480Z,164.49
2023-05-24T05:13:46.468Z,166.56
2023-05-24T05:14:46.471Z,167.28
2023-05-24T05:15:46.456Z,166.42
2023-05-24T05:16:46.744Z,165.10
2023-05-24T05:17:46.446Z,163.76
2023-05-24T05:18:46.435Z,162.20
2023-05-24T05:19:46.422Z,161.87
2023-05-24T05:20:46.716Z,160.70
2023-05-24T05:21:46.406Z,162.37
2023-05-24T05:22:46.370Z,161.69
2023-05-24T05:23:46.379Z,160.67
2023-05-24T05:24:46.352Z,162.54
2023-05-24T05:25:46.362Z,162.26
2023-05-24T05:26:46.371Z,163.74
2023-05-24T05:27:46.388Z,161.78
2023-05-24T05:28:46.343Z,161.78
2023-05-24T05:29:46.341Z,164.02
2023-05-24T05:30:46.373Z,164.87
2023-05-24T05:31:46.360Z,166.02
2023-05-24T05:32:46.554Z,167.38
2023-05-24T05:33:46.385Z,173.10
2023-05-24T05:34:46.360Z,178.20
2023-05-24T05:35:46.343Z,182.66
2023-05-24T05:36:46.354Z,188.58
2023-05-24T05:37:46.400Z,193.34
2023-05-24T05:38:46.401Z,199.72
2023-05-24T05:39:46.350Z,205.90
2023-05-24T05:40:46.349Z,206.16
2023-05-24T05:41:46.372Z,207.90
2023-05-24T05:42:46.318Z,211.67
2023-05-24T05:43:46.304Z,218.29
2023-05-24T05:44:46.364Z,206.70
2023-05-24T05:45:46.384Z,209.40
2023-05-24T05:46:46.538Z,206.74
2023-05-24T05:47:46.306Z,209.78
2023-05-24T05:48:46.574Z,216.82
2023-05-24T05:49:46.254Z,230.04
2023-05-24T05:50:46.294Z,247.05
2023-05-24T05:51:46.237Z,250.00
2023-05-24T05:52:46.222Z,250.00
2023-05-24T05:53:46.312Z,249.49
2023-05-24T05:54:46.310Z,249.29
2023-05-24T05:55:46.295Z,250.00
2023-05-24T05:56:46.368Z,248.49
2023-05-24T05:57:46.425Z,249.47
2023-05-24T05:58:46.466Z,249.17
2023-05-24T05:59:46.507Z,249.19
2023-05-24T06:00:46.646Z,248.92
2023-05-24T06:01:46.634Z,249.25
2023-05-24T06:02:46.955Z,248.57
2023-05-24T06:03:46.961Z,248.40
2023-05-24T06:04:46.791Z,248.08
2023-05-24T06:05:46.830Z,247.63
2023-05-24T06:06:46.898Z,248.17
2023-05-24T06:07:46.894Z,249.40
2023-05-24T06:08:46.912Z,246.35
2023-05-24T06:09:46.928Z,247.27
2023-05-24T06:10:46.980Z,246.66
2023-05-24T06:11:47.077Z,246.28
2023-05-24T06:12:47.056Z,245.85
2023-05-24T06:13:47.134Z,244.22
2023-05-24T06:14:47.009Z,245.60
2023-05-24T06:15:47.156Z,245.28
2023-05-24T06:16:47.120Z,243.66
2023-05-24T06:17:47.159Z,243.28
2023-05-24T06:18:57.056Z,239.38
2023-05-24T06:19:48.126Z,239.43
2023-05-24T06:20:47.250Z,238.51
2023-05-24T06:21:47.113Z,237.49
2023-05-24T06:22:47.286Z,236.19
2023-05-24T06:23:47.197Z,235.43
2023-05-24T06:24:47.062Z,232.03
2023-05-24T06:25:47.055Z,232.05
2023-05-24T06:26:47.489Z,229.87
2023-05-24T06:27:47.356Z,228.52
2023-05-24T06:28:47.029Z,227.52
2023-05-24T06:29:47.079Z,229.00
2023-05-24T06:30:47.141Z,226.82
2023-05-24T06:31:47.173Z,228.45
2023-05-24T06:32:47.028Z,227.97
2023-05-24T06:33:55.981Z,228.06
2023-05-24T06:34:47.997Z,228.06
2023-05-24T06:35:46.995Z,228.08
2023-05-24T06:36:46.983Z,228.02
2023-05-24T06:37:46.992Z,225.26
2023-05-24T06:38:46.976Z,224.29
2023-05-24T06:39:46.953Z,224.62
2023-05-24T06:40:47.050Z,223.02
2023-05-24T06:41:47.128Z,222.83
2023-05-24T06:42:46.935Z,225.40
2023-05-24T06:43:46.939Z,226.98
2023-05-24T06:44:46.921Z,230.50
2023-05-24T06:45:46.943Z,229.14
2023-05-24T06:46:47.034Z,229.89
2023-05-24T06:47:47.151Z,229.23
2023-05-24T06:48:47.200Z,227.69
2023-05-24T06:49:47.162Z,230.44
2023-05-24T06:50:47.349Z,232.80
2023-05-24T06:51:47.257Z,234.52
2023-05-24T06:52:47.373Z,234.02
2023-05-24T06:53:47.328Z,234.09
2023-05-24T06:54:47.297Z,233.69
2023-05-24T06:55:47.319Z,235.33
2023-05-24T06:56:47.287Z,237.66
2023-05-24T06:57:47.249Z,243.68
2023-05-24T06:58:47.218Z,246.79
2023-05-24T06:59:47.202Z,248.38
2023-05-24T07:00:47.227Z,249.74
2023-05-24T07:01:47.258Z,247.63
2023-05-24T07:02:47.302Z,245.19
2023-05-24T07:03:47.335Z,247.48
2023-05-24T07:04:47.405Z,249.36
2023-05-24T07:05:47.432Z,249.21
2023-05-24T07:06:47.480Z,249.78
2023-05-24T07:07:47.507Z,249.73
2023-05-24T07:08:47.563Z,249.62
2023-05-24T07:09:47.594Z,249.24
2023-05-24T07:10:47.591Z,249.42
2023-05-24T07:11:47.604Z,250.08
2023-05-24T07:12:47.548Z,250.94
2023-05-24T07:13:47.550Z,252.87
2023-05-24T07:14:47.532Z,255.89
2023-05-24T07:15:47.551Z,249.61
2023-05-24T07:16:47.606Z,250.00
2023-05-24T07:17:47.545Z,248.72
2023-05-24T07:18:47.486Z,243.42
2023-05-24T07:19:47.488Z,245.70
2023-05-24T07:20:48.002Z,245.49
2023-05-24T07:21:47.517Z,245.57
2023-05-24T07:22:47.581Z,246.66
2023-05-24T07:23:47.538Z,245.03
2023-05-24T07:24:47.578Z,243.97
2023-05-24T07:25:47.619Z,243.90
2023-05-24T07:26:47.656Z,240.15
2023-05-24T07:27:47.699Z,240.59
2023-05-24T07:28:47.734Z,236.63
2023-05-24T07:29:48.510Z,229.95
2023-05-24T07:30:48.061Z,227.47
2023-05-24T07:31:48.748Z,226.07
2023-05-24T07:32:47.995Z,224.35
2023-05-24T07:33:47.939Z,219.89
2023-05-24T07:34:47.935Z,217.15
2023-05-24T07:35:47.967Z,215.61
2023-05-24T07:36:48.082Z,215.58
2023-05-24T07:37:48.043Z,215.70
2023-05-24T07:38:47.983Z,214.94
2023-05-24T07:39:47.964Z,206.26
2023-05-24T07:40:48.052Z,162.32
2023-05-24T07:41:48.012Z,154.45
2023-05-24T07:42:47.939Z,158.41
2023-05-24T07:43:47.971Z,166.04
2023-05-24T07:44:47.921Z,169.85
2023-05-24T07:45:47.980Z,170.30
2023-05-24T07:46:47.941Z,170.97
2023-05-24T07:47:48.067Z,174.43
2023-05-24T07:48:48.208Z,177.13
2023-05-24T07:49:48.030Z,179.95
2023-05-24T07:50:48.063Z,182.57
2023-05-24T07:51:48.083Z,185.18
2023-05-24T07:52:48.145Z,189.26
2023-05-24T07:53:48.219Z,192.56
2023-05-24T07:54:48.140Z,196.32
2023-05-24T07:55:48.178Z,202.52
2023-05-24T07:56:48.254Z,204.04
2023-05-24T07:57:48.180Z,208.04
2023-05-24T07:58:48.192Z,214.97
2023-05-24T07:59:48.223Z,219.64
2023-05-24T08:00:48.223Z,219.72
2023-05-24T08:01:48.697Z,215.96
2023-05-24T08:02:48.297Z,212.25
2023-05-24T08:03:48.400Z,211.37
2023-05-24T08:04:48.264Z,205.21
2023-05-24T08:05:48.271Z,203.94
2023-05-24T08:06:48.317Z,191.10
2023-05-24T08:07:48.376Z,193.13
2023-05-24T08:08:48.303Z,188.78
2023-05-24T08:09:48.311Z,186.23
2023-05-24T08:10:48.326Z,176.45
2023-05-24T08:11:48.357Z,175.89
2023-05-24T08:12:48.332Z,175.19
2023-05-24T08:13:48.369Z,173.68
2023-05-24T08:14:48.356Z,171.57
2023-05-24T08:15:48.378Z,171.30
2023-05-24T08:16:48.427Z,170.65
2023-05-24T08:17:48.460Z,167.38
2023-05-24T08:18:48.389Z,161.49
2023-05-24T08:19:48.406Z,149.55
2023-05-24T08:20:48.531Z,148.90
2023-05-24T08:21:48.427Z,155.64
2023-05-24T08:22:48.461Z,152.10
2023-05-24T08:23:48.467Z,149.96
2023-05-24T08:24:48.490Z,152.00
2023-05-24T08:25:48.642Z,153.06
2023-05-24T08:26:48.519Z,153.45
2023-05-24T08:27:48.565Z,153.28
2023-05-24T08:28:48.579Z,153.98
2023-05-24T08:29:48.539Z,155.73
2023-05-24T08:30:48.556Z,120.47
2023-05-24T08:31:48.553Z,114.21
2023-05-24T08:32:48.637Z,110.21
2023-05-24T08:33:48.562Z,95.72
2023-05-24T08:34:48.562Z,99.27
2023-05-24T08:35:49.211Z,88.95
2023-05-24T08:36:48.607Z,80.50
2023-05-24T08:37:48.657Z,83.55
2023-05-24T08:38:48.660Z,73.69
2023-05-24T08:39:48.662Z,68.20
2023-05-24T08:40:48.701Z,68.08
2023-05-24T08:42:01.037Z,66.85
2023-05-24T08:42:49.791Z,62.95
2023-05-24T08:43:48.799Z,55.81
2023-05-24T08:44:48.849Z,57.13
2023-05-24T08:45:48.924Z,61.08
2023-05-24T08:46:48.994Z,71.72
2023-05-24T08:47:49.034Z,82.10
2023-05-24T08:48:48.951Z,88.92
2023-05-24T08:49:49.056Z,103.94
2023-05-24T08:50:48.961Z,118.30
2023-05-24T08:51:50.840Z,132.55
2023-05-24T08:52:49.082Z,147.46
2023-05-24T08:53:49.187Z,159.85
2023-05-24T08:54:49.159Z,171.22
2023-05-24T08:55:49.221Z,179.16
2023-05-24T08:56:49.242Z,185.45
2023-05-24T08:57:49.279Z,188.98
2023-05-24T08:58:49.282Z,189.74
2023-05-24T08:59:49.320Z,192.83
2023-05-24T09:00:49.362Z,196.27
2023-05-24T09:01:49.365Z,198.77
2023-05-24T09:02:49.299Z,198.93
2023-05-24T09:03:49.340Z,199.57
2023-05-24T09:04:49.304Z,201.45
2023-05-24T09:05:49.307Z,204.85
2023-05-24T09:06:49.719Z,209.79
2023-05-24T09:07:49.483Z,209.86
2023-05-24T09:08:49.373Z,211.22
2023-05-24T09:09:49.302Z,211.29
2023-05-24T09:10:55.638Z,211.75
2023-05-24T09:11:50.332Z,211.45
2023-05-24T09:12:49.363Z,211.49
2023-05-24T09:13:49.305Z,212.46
2023-05-24T09:14:49.309Z,214.72
2023-05-24T09:15:49.379Z,217.31
2023-05-24T09:16:49.342Z,223.09
2023-05-24T09:17:49.362Z,223.45
2023-05-24T09:18:49.396Z,225.17
2023-05-24T09:19:49.344Z,226.75
2023-05-24T09:20:49.384Z,226.86
2023-05-24T09:21:49.331Z,227.81
2023-05-24T09:22:49.392Z,229.94
2023-05-24T09:23:49.350Z,230.68
2023-05-24T09:24:49.360Z,231.35
2023-05-24T09:25:49.342Z,230.85
2023-05-24T09:26:49.340Z,230.37
2023-05-24T09:27:49.469Z,230.72
2023-05-24T09:28:49.328Z,230.52
2023-05-24T09:29:49.349Z,229.55
2023-05-24T09:30:49.342Z,230.96
2023-05-24T09:31:49.411Z,229.83
2023-05-24T09:32:49.369Z,229.33
2023-05-24T09:33:49.317Z,231.44
2023-05-24T09:34:49.352Z,231.28
2023-05-24T09:35:49.345Z,231.81
2023-05-24T09:36:49.338Z,234.70
2023-05-24T09:37:49.362Z,234.00
2023-05-24T09:38:49.361Z,233.94
2023-05-24T09:39:49.355Z,234.91
2023-05-24T09:40:49.342Z,236.05
2023-05-24T09:41:49.682Z,239.26
2023-05-24T09:42:49.333Z,246.18
2023-05-24T09:43:49.364Z,201.41
2023-05-24T09:44:49.357Z,209.36
2023-05-24T09:45:49.604Z,193.33
2023-05-24T09:46:49.494Z,190.08
2023-05-24T09:47:49.414Z,177.95
2023-05-24T09:48:49.450Z,174.02
2023-05-24T09:49:49.458Z,177.21
2023-05-24T09:50:49.470Z,174.58
2023-05-24T09:51:49.589Z,167.13
2023-05-24T09:52:49.549Z,168.73
2023-05-24T09:53:49.683Z,164.01
2023-05-24T09:54:49.627Z,156.14
2023-05-24T09:55:49.675Z,146.05
2023-05-24T09:56:49.699Z,150.71
2023-05-24T09:57:49.723Z,154.58
2023-05-24T09:58:49.851Z,161.04
2023-05-24T09:59:49.904Z,152.45
2023-05-24T10:00:50.017Z,158.35
2023-05-24T10:01:50.167Z,152.13
2023-05-24T10:02:53.061Z,150.67
2023-05-24T10:03:50.278Z,150.54
2023-05-24T10:04:50.308Z,156.86
2023-05-24T10:05:50.226Z,164.89
2023-05-24T10:06:50.265Z,183.12
2023-05-24T10:07:50.277Z,196.63
2023-05-24T10:08:50.333Z,204.75
2023-05-24T10:09:50.392Z,205.11
2023-05-24T10:10:50.336Z,207.19
2023-05-24T10:11:50.627Z,212.52
2023-05-24T10:12:50.338Z,221.05
2023-05-24T10:13:50.383Z,234.92
2023-05-24T10:14:50.433Z,239.25
2023-05-24T10:15:50.440Z,242.35
2023-05-24T10:16:50.547Z,241.69
2023-05-24T10:17:50.506Z,243.61
2023-05-24T10:18:50.536Z,244.84
2023-05-24T10:19:50.480Z,245.44
2023-05-24T10:20:51.071Z,246.89
2023-05-24T10:21:50.571Z,249.67
2023-05-24T10:22:50.603Z,249.70
2023-05-24T10:23:50.504Z,249.46
2023-05-24T10:24:50.681Z,250.00
2023-05-24T10:25:50.500Z,249.91
2023-05-24T10:26:50.544Z,250.02
2023-05-24T10:27:50.533Z,250.57
2023-05-24T10:28:50.525Z,252.18
2023-05-24T10:29:50.556Z,255.10
2023-05-24T10:30:50.680Z,261.28
2023-05-24T10:31:50.596Z,251.29
2023-05-24T10:32:50.634Z,249.25
2023-05-24T10:33:50.586Z,249.87
2023-05-24T10:34:50.604Z,249.40
2023-05-24T10:35:50.662Z,249.88
2023-05-24T10:36:50.750Z,248.86
2023-05-24T10:37:50.788Z,248.22
2023-05-24T10:38:50.791Z,248.12
2023-05-24T10:39:50.817Z,247.52
2023-05-24T10:40:50.980Z,248.44
2023-05-24T10:41:50.859Z,248.40
2023-05-24T10:42:50.825Z,249.44
2023-05-24T10:44:04.857Z,251.87
2023-05-24T10:44:51.834Z,248.66
2023-05-24T10:45:50.901Z,250.21
2023-05-24T10:46:50.836Z,253.63
2023-05-24T10:47:50.884Z,259.22
2023-05-24T10:48:50.812Z,266.73
2023-05-24T10:49:50.826Z,257.68
2023-05-24T10:50:50.890Z,249.91
2023-05-24T10:51:50.824Z,249.30
2023-05-24T10:52:50.839Z,249.92
2023-05-24T10:53:50.817Z,250.00
2023-05-24T10:55:03.268Z,249.61
2023-05-24T10:55:51.840Z,249.70
2023-05-24T10:56:50.818Z,249.86
2023-05-24T10:57:50.818Z,251.17
2023-05-24T10:58:50.814Z,253.46
2023-05-24T10:59:50.880Z,255.29
2023-05-24T11:00:50.946Z,250.00
2023-05-24T11:01:50.863Z,248.87
2023-05-24T11:02:50.858Z,249.51
2023-05-24T11:03:50.822Z,248.93
2023-05-24T11:04:50.824Z,250.12
2023-05-24T11:05:50.987Z,249.67
2023-05-24T11:06:50.870Z,249.86
2023-05-24T11:07:50.803Z,249.77
2023-05-24T11:08:50.800Z,249.83
2023-05-24T11:09:50.799Z,250.17
2023-05-24T11:10:50.788Z,251.16
2023-05-24T11:11:50.809Z,253.06
2023-05-24T11:12:50.841Z,255.45
2023-05-24T11:13:50.876Z,249.88
2023-05-24T11:14:50.805Z,249.82
2023-05-24T11:15:50.826Z,248.57
2023-05-24T11:16:50.843Z,249.11
2023-05-24T11:17:50.854Z,248.71
2023-05-24T11:18:50.756Z,249.34
2023-05-24T11:19:50.808Z,249.25
2023-05-24T11:20:50.822Z,249.15
2023-05-24T11:21:50.725Z,248.63
2023-05-24T11:22:50.722Z,249.25
2023-05-24T11:23:50.674Z,249.12
2023-05-24T11:24:50.692Z,249.18
2023-05-24T11:25:50.626Z,249.53
2023-05-24T11:26:50.631Z,251.01
2023-05-24T11:27:50.728Z,252.78
2023-05-24T11:28:50.566Z,256.35
2023-05-24T11:29:50.606Z,249.77
2023-05-24T11:30:50.621Z,249.39
2023-05-24T11:31:50.535Z,248.79
2023-05-24T11:32:50.515Z,247.29
2023-05-24T11:33:50.461Z,244.75
2023-05-24T11:34:50.510Z,244.38
2023-05-24T11:35:50.438Z,243.07
2023-05-24T11:36:50.414Z,241.78
2023-05-24T11:37:50.389Z,240.06
2023-05-24T11:38:50.384Z,238.21
2023-05-24T11:39:50.359Z,236.91
2023-05-24T11:40:50.329Z,235.30
2023-05-24T11:41:50.358Z,234.77
2023-05-24T11:42:50.314Z,232.37
2023-05-24T11:43:50.290Z,230.45
2023-05-24T11:44:50.284Z,229.87
2023-05-24T11:45:50.319Z,227.01
2023-05-24T11:46:50.297Z,226.02
2023-05-24T11:47:50.247Z,223.20
2023-05-24T11:48:50.231Z,223.23
2023-05-24T11:49:50.182Z,223.21
2023-05-24T11:50:50.645Z,220.39
2023-05-24T11:51:50.169Z,218.71
2023-05-24T11:52:50.145Z,216.90
2023-05-24T11:54:50.139Z,212.91
2023-05-24T11:55:50.139Z,212.93
2023-05-24T11:56:50.114Z,212.05
2023-05-24T11:57:50.063Z,210.18
2023-05-24T11:58:50.070Z,208.77
2023-05-24T11:59:50.029Z,207.02
2023-05-24T12:00:50.010Z,204.67
2023-05-24T12:01:50.032Z,203.60
2023-05-24T12:02:50.131Z,201.85
2023-05-24T12:03:50.395Z,199.69
2023-05-24T12:04:50.227Z,197.67
2023-05-24T12:05:50.195Z,196.09
2023-05-24T12:06:50.213Z,195.08
2023-05-24T12:07:50.266Z,194.03
2023-05-24T12:08:50.308Z,193.25
2023-05-24T12:09:50.318Z,192.05
2023-05-24T12:10:50.382Z,191.33
2023-05-24T12:11:50.417Z,190.25
2023-05-24T12:12:50.440Z,189.44
2023-05-24T12:13:50.476Z,188.30
2023-05-24T12:14:50.520Z,187.06
2023-05-24T12:15:52.687Z,186.11
2023-05-24T12:16:50.549Z,186.13
2023-05-24T12:17:50.610Z,185.91
2023-05-24T12:19:02.355Z,185.03
2023-05-24T12:19:51.510Z,186.14
2023-05-24T12:20:50.623Z,185.64
2023-05-24T12:21:52.734Z,184.43
2023-05-24T12:22:50.471Z,184.72
2023-05-24T12:23:50.408Z,184.57
2023-05-24T12:24:50.365Z,183.30
2023-05-24T12:25:50.342Z,182.31
2023-05-24T12:26:50.359Z,179.34
2023-05-24T12:27:52.294Z,178.87
2023-05-24T12:28:50.304Z,178.92
2023-05-24T12:29:50.272Z,178.94
2023-05-24T12:30:50.242Z,178.10